Time;durP1;ratioP1;P1;durP2;ratioP2;P2;SDS_P1;SDS_P2;PMS_P1;PMS_P2;Temp;Humidity;BMP_temperature;BMP_pressure;BME280_temperature;BME280_humidity;BME280_pressure;Samples;Min_cycle;Max_cycle;Signal;HPM_P1;HPM_P2
2021/12/17 00:02:20;;;;;;;115.03;25.13;;;7.90;99.90;;;;;;5045125;28;20067;-81
2021/12/17 00:07:08;;;;;;;59.53;18.55;;;7.80;99.90;;;;;;5046874;28;20581;-81
2021/12/17 00:09:34;;;;;;;44.50;17.85;;;7.80;99.90;;;;;;5052440;28;20382;-81
2021/12/17 00:12:00;;;;;;;55.50;18.88;;;7.80;99.90;;;;;;5044334;28;20037;-81
2021/12/17 00:14:28;;;;;;;66.77;19.53;;;7.80;99.90;;;;;;5015756;28;20059;-81
2021/12/17 00:16:57;;;;;;;109.93;22.25;;;7.80;99.90;;;;;;4999941;28;20035;-81
2021/12/17 00:48:59;;;;;;;50.30;17.23;;;7.80;99.90;;;;;;5018563;28;20063;-81
2021/12/17 00:53:59;;;;;;;62.65;18.08;;;7.70;99.90;;;;;;5070403;28;20049;-81
2021/12/17 00:56:26;;;;;;;94.00;21.40;;;7.80;99.90;;;;;;5015691;28;20029;-81
2021/12/17 00:58:53;;;;;;;56.33;17.13;;;7.80;99.90;;;;;;5048485;28;20087;-81
2021/12/17 01:01:20;;;;;;;50.00;15.98;;;7.80;99.90;;;;;;5031441;28;20035;-81
2021/12/17 01:03:46;;;;;;;96.47;21.38;;;7.80;99.90;;;;;;5030991;28;20048;-81
2021/12/17 01:06:12;;;;;;;106.68;21.45;;;7.80;99.90;;;;;;5030803;28;20036;-81
2021/12/17 01:08:38;;;;;;;47.37;15.07;;;7.80;99.90;;;;;;5047784;28;20037;-81
2021/12/17 01:11:06;;;;;;;39.40;15.48;;;7.80;99.90;;;;;;5031304;28;20503;-81
2021/12/17 01:13:34;;;;;;;43.72;15.73;;;7.80;99.90;;;;;;5014650;28;20075;-81
2021/12/17 01:16:00;;;;;;;51.40;16.58;;;7.80;99.90;;;;;;5040917;28;20433;-81
2021/12/17 01:18:38;;;;;;;73.43;18.25;;;7.80;99.90;;;;;;5014831;28;20072;-81
2021/12/17 01:24:15;;;;;;;67.70;17.98;;;7.80;99.90;;;;;;5015668;28;20546;-81
2021/12/17 01:42:54;;;;;;;111.55;20.52;;;7.80;99.90;;;;;;5047268;28;20045;-81
2021/12/17 01:45:25;;;;;;;94.07;20.10;;;7.80;99.90;;;;;;5014354;28;20131;-81
2021/12/17 01:47:51;;;;;;;103.22;21.25;;;7.70;99.90;;;;;;5015575;28;20747;-81
2021/12/17 02:01:04;;;;;;;203.10;28.43;;;7.70;99.90;;;;;;5040972;28;20490;-81
2021/12/17 02:03:30;;;;;;;147.15;25.65;;;7.70;99.90;;;;;;5062703;28;20049;-81
2021/12/17 02:05:56;;;;;;;93.90;21.93;;;7.70;99.90;;;;;;5029017;28;20404;-81
2021/12/17 02:08:22;;;;;;;121.23;23.63;;;7.70;99.90;;;;;;4997377;28;20045;-81
2021/12/17 02:32:39;;;;;;;79.05;20.63;;;7.70;99.90;;;;;;5061643;28;20052;-81
2021/12/17 02:37:33;;;;;;;138.60;25.60;;;7.70;99.90;;;;;;5007040;28;20049;-81
2021/12/17 02:42:20;;;;;;;136.45;25.52;;;7.70;99.90;;;;;;5013804;28;20037;-81
2021/12/17 02:45:32;;;;;;;119.43;26.05;;;7.60;99.90;;;;;;5025659;28;20076;-81
2021/12/17 02:48:11;;;;;;;98.53;23.70;;;7.70;99.90;;;;;;5045047;28;20124;-81
2021/12/17 02:50:41;;;;;;;125.03;26.38;;;7.70;99.90;;;;;;5029873;28;20075;-81
2021/12/17 02:53:08;;;;;;;107.13;23.75;;;7.70;99.90;;;;;;5073894;28;20519;-81
2021/12/17 02:55:36;;;;;;;99.65;24.40;;;7.70;99.90;;;;;;5012899;28;20061;-81
2021/12/17 02:58:04;;;;;;;86.68;22.08;;;7.70;99.90;;;;;;5062846;28;20037;-81
2021/12/17 03:00:30;;;;;;;75.90;22.38;;;7.60;99.90;;;;;;5045952;28;20122;-81
2021/12/17 03:02:56;;;;;;;102.85;23.15;;;7.70;99.90;;;;;;5010414;28;20561;-81
2021/12/17 03:05:23;;;;;;;130.17;27.13;;;7.60;99.90;;;;;;5044240;28;20127;-81
2021/12/17 03:07:50;;;;;;;112.63;24.25;;;7.70;99.90;;;;;;5030149;28;20690;-81
2021/12/17 03:10:16;;;;;;;92.93;23.17;;;7.60;99.90;;;;;;5009900;28;20047;-81
2021/12/17 03:12:50;;;;;;;146.27;26.53;;;7.60;99.90;;;;;;4996645;28;20045;-81
2021/12/17 03:25:42;;;;;;;124.40;24.70;;;7.60;99.90;;;;;;5039103;28;20048;-81
2021/12/17 03:28:08;;;;;;;82.07;20.63;;;7.60;99.90;;;;;;5017010;28;20089;-81
2021/12/17 03:30:34;;;;;;;112.40;21.60;;;7.60;99.90;;;;;;5000165;28;20071;-81
2021/12/17 03:32:59;;;;;;;124.97;23.43;;;7.60;99.90;;;;;;5012777;28;20041;-81
2021/12/17 03:35:25;;;;;;;106.73;20.87;;;7.60;99.90;;;;;;4996223;28;20045;-81
2021/12/17 03:37:51;;;;;;;120.13;21.83;;;7.60;99.90;;;;;;5016449;28;20507;-81
2021/12/17 03:40:18;;;;;;;72.40;18.00;;;7.60;99.90;;;;;;5016443;28;20477;-81
2021/12/17 03:42:49;;;;;;;155.48;24.70;;;7.60;99.90;;;;;;5049643;28;20098;-81
2021/12/17 03:45:17;;;;;;;153.63;23.73;;;7.60;99.90;;;;;;5045893;28;20430;-81
2021/12/17 03:47:43;;;;;;;148.68;24.20;;;7.60;99.90;;;;;;5066144;28;20033;-81
2021/12/17 03:50:09;;;;;;;80.07;19.23;;;7.60;99.90;;;;;;5019953;28;20052;-81
2021/12/17 03:52:35;;;;;;;118.30;22.05;;;7.60;99.90;;;;;;5015876;28;20090;-81
2021/12/17 03:55:01;;;;;;;124.47;21.73;;;7.60;99.90;;;;;;5000100;28;20040;-81
2021/12/17 03:57:27;;;;;;;93.50;18.67;;;7.60;99.90;;;;;;5031584;28;20060;-81
2021/12/17 03:59:53;;;;;;;93.82;19.55;;;7.60;99.90;;;;;;5017161;28;20037;-81
2021/12/17 04:02:19;;;;;;;94.05;19.15;;;7.60;99.90;;;;;;5032891;28;20451;-81
2021/12/17 04:04:45;;;;;;;94.87;19.57;;;7.60;99.90;;;;;;5066054;28;20037;-81
2021/12/17 04:07:11;;;;;;;93.75;19.10;;;7.60;99.90;;;;;;5014399;28;20054;-81
2021/12/17 04:09:37;;;;;;;115.30;21.23;;;7.60;99.90;;;;;;5000630;28;20496;-81
2021/12/17 04:12:07;;;;;;;99.43;19.17;;;7.60;99.90;;;;;;5042992;28;20045;-81
2021/12/17 04:14:41;;;;;;;77.43;17.98;;;7.60;99.90;;;;;;5016808;28;20041;-81
2021/12/17 04:17:07;;;;;;;127.78;21.00;;;7.60;99.90;;;;;;4998280;28;20560;-81
2021/12/17 04:19:34;;;;;;;87.35;17.88;;;7.60;99.90;;;;;;5016690;28;20493;-81
2021/12/17 04:22:00;;;;;;;123.53;18.52;;;7.60;99.90;;;;;;5029378;28;20041;-81
2021/12/17 04:24:26;;;;;;;81.77;17.90;;;7.70;99.90;;;;;;5031470;28;20466;-81
2021/12/17 04:26:52;;;;;;;100.20;18.60;;;7.70;99.90;;;;;;5056318;28;20159;-81
2021/12/17 04:29:19;;;;;;;240.13;24.93;;;7.60;99.90;;;;;;5031431;28;20128;-81
2021/12/17 04:31:51;;;;;;;78.80;17.55;;;7.60;99.90;;;;;;5031087;28;20562;-81
2021/12/17 04:34:18;;;;;;;175.77;21.98;;;7.60;99.90;;;;;;5050100;28;20463;-81
2021/12/17 04:36:46;;;;;;;170.60;22.02;;;7.60;99.90;;;;;;5031898;28;20119;-81
2021/12/17 04:39:12;;;;;;;96.10;17.65;;;7.60;99.90;;;;;;4993652;28;20048;-81
2021/12/17 04:41:45;;;;;;;67.13;17.47;;;7.60;99.90;;;;;;5030903;28;20144;-81
2021/12/17 04:47:03;;;;;;;96.32;17.27;;;7.60;99.90;;;;;;5049679;28;20340;-81
2021/12/17 04:57:44;;;;;;;170.00;21.60;;;7.50;99.90;;;;;;5052751;28;20045;-81
2021/12/17 05:00:18;;;;;;;94.85;17.83;;;7.60;99.90;;;;;;5056375;28;20123;-81
2021/12/17 05:02:48;;;;;;;167.88;22.70;;;7.60;99.90;;;;;;5030785;28;20033;-81
2021/12/17 05:05:16;;;;;;;153.73;22.33;;;7.50;99.90;;;;;;5014900;28;20083;-81
2021/12/17 05:07:49;;;;;;;258.88;23.77;;;7.50;99.90;;;;;;5064747;28;20544;-81
2021/12/17 05:18:31;;;;;;;111.85;17.63;;;7.50;99.90;;;;;;5019801;28;20045;-81
2021/12/17 05:21:02;;;;;;;387.38;29.20;;;7.50;99.90;;;;;;5056096;28;20330;-81
2021/12/17 05:23:33;;;;;;;270.17;22.05;;;7.50;99.90;;;;;;5063301;28;20041;-81
2021/12/17 05:26:10;;;;;;;354.00;25.52;;;7.50;99.90;;;;;;5057162;28;20171;-81
2021/12/17 05:28:36;;;;;;;210.75;20.90;;;7.50;99.90;;;;;;5061150;28;20048;-81
2021/12/17 05:31:02;;;;;;;80.40;15.67;;;7.50;99.90;;;;;;5013853;28;20035;-81
2021/12/17 05:33:28;;;;;;;74.37;14.87;;;7.50;99.90;;;;;;4998349;28;20114;-81
2021/12/17 05:35:54;;;;;;;93.27;16.30;;;7.50;99.90;;;;;;5010814;28;20366;-81
2021/12/17 05:38:23;;;;;;;98.95;15.95;;;7.50;99.90;;;;;;5030668;28;20543;-81
2021/12/17 05:40:49;;;;;;;55.80;13.18;;;7.50;99.90;;;;;;5047188;28;20040;-81
2021/12/17 05:43:16;;;;;;;114.32;16.98;;;7.50;99.90;;;;;;4997934;28;20075;-81
2021/12/17 05:48:13;;;;;;;57.40;12.23;;;7.50;99.90;;;;;;5047383;28;20102;-81
2021/12/17 05:50:41;;;;;;;47.05;12.88;;;7.50;99.90;;;;;;5063134;28;20063;-81
2021/12/17 05:53:08;;;;;;;49.47;12.50;;;7.50;99.90;;;;;;5040061;28;20056;-81
2021/12/17 05:55:35;;;;;;;84.88;15.30;;;7.50;99.90;;;;;;5022177;28;20049;-81
2021/12/17 05:58:01;;;;;;;121.78;17.50;;;7.50;99.90;;;;;;5014246;28;20115;-81
2021/12/17 06:00:30;;;;;;;127.60;18.00;;;7.50;99.90;;;;;;5013885;28;20041;-81
2021/12/17 06:02:57;;;;;;;78.85;14.38;;;7.50;99.90;;;;;;5014364;28;20369;-81
2021/12/17 06:05:23;;;;;;;101.72;16.42;;;7.50;99.90;;;;;;5028428;28;20037;-81
2021/12/17 06:07:49;;;;;;;110.87;15.53;;;7.50;99.90;;;;;;5045968;28;20075;-81
2021/12/17 06:10:15;;;;;;;123.28;17.38;;;7.50;99.90;;;;;;5029972;28;20290;-81
2021/12/17 06:12:42;;;;;;;84.78;15.55;;;7.50;99.90;;;;;;5028569;28;20396;-82
2021/12/17 06:15:10;;;;;;;94.25;16.15;;;7.50;99.90;;;;;;5027145;28;20064;-82
2021/12/17 06:17:36;;;;;;;90.57;15.70;;;7.50;99.90;;;;;;5045783;28;20058;-82
2021/12/17 06:20:04;;;;;;;59.55;13.93;;;7.50;99.90;;;;;;5024409;28;20044;-82
2021/12/17 06:22:30;;;;;;;121.70;16.98;;;7.50;99.90;;;;;;5013637;28;20037;-82
2021/12/17 06:24:56;;;;;;;64.50;14.40;;;7.50;99.90;;;;;;5046447;28;20068;-82
2021/12/17 06:27:23;;;;;;;134.93;17.13;;;7.50;99.90;;;;;;5030055;28;20051;-82
2021/12/17 06:29:49;;;;;;;94.03;16.25;;;7.60;99.90;;;;;;5030666;28;20072;-82
2021/12/17 06:32:15;;;;;;;69.37;14.70;;;7.50;99.90;;;;;;5029396;28;20068;-82
2021/12/17 06:34:41;;;;;;;102.30;16.83;;;7.50;99.90;;;;;;5013579;28;20080;-82
2021/12/17 06:37:07;;;;;;;94.50;16.93;;;7.50;99.90;;;;;;5060129;28;20466;-82
2021/12/17 06:39:34;;;;;;;75.50;14.40;;;7.50;99.90;;;;;;5047208;28;20075;-82
2021/12/17 06:42:00;;;;;;;83.78;15.20;;;7.50;99.90;;;;;;5046966;28;20283;-82
2021/12/17 06:44:27;;;;;;;73.03;13.45;;;7.50;99.90;;;;;;5060515;28;20041;-82
2021/12/17 06:47:03;;;;;;;84.00;14.02;;;7.50;99.90;;;;;;5045502;28;20045;-82
2021/12/17 07:09:00;;;;;;;140.77;18.15;;;7.40;99.90;;;;;;5066713;28;20446;-81
2021/12/17 07:10:48;;;;;;;105.60;15.55;;;7.40;99.90;;;;;;5030359;28;20059;-81
2021/12/17 07:39:42;;;;;;;33.00;10.20;;;7.40;99.90;;;;;;5049946;28;20179;-80
2021/12/17 07:42:08;;;;;;;36.08;11.23;;;7.40;99.90;;;;;;5005082;28;20037;-82
2021/12/17 07:44:34;;;;;;;56.37;13.57;;;7.40;99.90;;;;;;5009905;28;20033;-82
2021/12/17 07:47:00;;;;;;;30.67;10.53;;;7.40;99.90;;;;;;5012034;28;20150;-82
2021/12/17 07:49:26;;;;;;;32.40;10.30;;;7.50;99.90;;;;;;5025852;28;20136;-82
2021/12/17 07:51:52;;;;;;;30.20;10.90;;;7.50;99.90;;;;;;5014750;28;20048;-82
2021/12/17 07:54:17;;;;;;;31.67;10.40;;;7.50;99.90;;;;;;5028619;28;20570;-82
2021/12/17 07:56:44;;;;;;;49.33;13.17;;;7.50;99.90;;;;;;5041857;28;20275;-82
2021/12/17 07:59:11;;;;;;;48.95;13.43;;;7.50;99.90;;;;;;5041867;28;20036;-82
2021/12/17 08:01:37;;;;;;;45.92;13.32;;;7.50;99.90;;;;;;5029797;28;20048;-82
2021/12/17 08:04:04;;;;;;;40.70;12.48;;;7.50;99.90;;;;;;5032126;28;20175;-82
2021/12/17 08:06:31;;;;;;;34.40;11.57;;;7.50;99.90;;;;;;5031010;28;20044;-81
2021/12/17 08:08:56;;;;;;;38.22;11.90;;;7.50;99.90;;;;;;5043552;28;20099;-81
2021/12/17 08:11:22;;;;;;;42.97;12.80;;;7.50;99.90;;;;;;4999862;28;20123;-81
2021/12/17 08:13:49;;;;;;;44.45;12.93;;;7.50;99.90;;;;;;5083413;28;20052;-81
2021/12/17 08:16:31;;;;;;;42.78;12.45;;;7.60;99.90;;;;;;4999575;28;20708;-81
2021/12/17 08:31:52;;;;;;;37.15;13.15;;;7.70;99.90;;;;;;5045953;28;20533;-81
2021/12/17 08:34:18;;;;;;;36.72;12.32;;;7.60;99.90;;;;;;5014623;28;20045;-81
2021/12/17 08:36:44;;;;;;;37.53;13.27;;;7.70;99.90;;;;;;5014699;28;20072;-81
2021/12/17 08:39:09;;;;;;;32.37;11.53;;;7.70;99.90;;;;;;5058827;28;20038;-81
2021/12/17 08:41:38;;;;;;;45.57;13.80;;;7.70;99.90;;;;;;5044079;28;20520;-81
2021/12/17 08:44:04;;;;;;;39.83;13.15;;;7.80;99.90;;;;;;5044450;28;20371;-81
2021/12/17 08:46:29;;;;;;;33.87;12.57;;;7.80;99.90;;;;;;5030198;28;20094;-81
2021/12/17 08:48:55;;;;;;;30.43;11.87;;;7.80;99.90;;;;;;4998373;28;20037;-81
2021/12/17 08:51:21;;;;;;;38.17;12.70;;;7.80;99.90;;;;;;4998192;28;20084;-81
2021/12/17 08:53:47;;;;;;;37.43;13.00;;;7.80;99.90;;;;;;4998091;28;20050;-81
2021/12/17 08:56:18;;;;;;;33.85;12.00;;;7.80;99.90;;;;;;5012502;28;20788;-81
2021/12/17 08:58:45;;;;;;;33.90;12.88;;;7.80;99.90;;;;;;5025816;28;20041;-81
2021/12/17 09:01:10;;;;;;;35.97;12.07;;;7.80;99.90;;;;;;5028495;28;20033;-82
2021/12/17 09:03:36;;;;;;;32.50;11.80;;;7.90;99.90;;;;;;5029019;28;20053;-82
2021/12/17 09:06:04;;;;;;;33.07;11.90;;;7.90;99.90;;;;;;5049062;28;20457;-81
2021/12/17 09:08:30;;;;;;;44.63;13.40;;;7.90;99.90;;;;;;5067656;28;20405;-81
2021/12/17 09:10:56;;;;;;;41.80;12.83;;;8.00;99.90;;;;;;5029179;28;20041;-81
2021/12/17 09:13:25;;;;;;;40.35;13.63;;;8.00;99.90;;;;;;5055364;28;20037;-81
2021/12/17 09:15:57;;;;;;;34.92;11.43;;;8.00;99.90;;;;;;5018750;28;20559;-81
2021/12/17 09:18:24;;;;;;;43.30;13.00;;;7.90;99.90;;;;;;5068621;28;20037;-81
2021/12/17 09:20:49;;;;;;;36.20;12.70;;;8.00;99.90;;;;;;5057913;28;20037;-81
2021/12/17 09:23:15;;;;;;;39.93;12.77;;;8.00;99.90;;;;;;5018761;28;20405;-81
2021/12/17 09:25:42;;;;;;;31.33;12.05;;;8.00;99.90;;;;;;5050036;28;20055;-80
2021/12/17 09:28:08;;;;;;;34.17;11.82;;;8.10;99.90;;;;;;5057186;28;20045;-80
2021/12/17 09:30:34;;;;;;;39.75;12.93;;;8.10;99.90;;;;;;5042830;28;20049;-80
2021/12/17 09:33:00;;;;;;;43.17;14.07;;;8.10;99.90;;;;;;5067474;28;20045;-80
2021/12/17 09:35:26;;;;;;;34.83;12.67;;;8.10;99.90;;;;;;5050481;28;20853;-80
2021/12/17 09:37:52;;;;;;;34.67;11.97;;;8.10;99.90;;;;;;4997918;28;20057;-80
2021/12/17 09:40:18;;;;;;;45.27;13.73;;;8.10;99.90;;;;;;5033861;28;20493;-80
2021/12/17 09:42:45;;;;;;;50.45;14.95;;;8.20;99.90;;;;;;5033079;28;20575;-80
2021/12/17 09:45:14;;;;;;;32.70;12.30;;;8.20;99.90;;;;;;5016390;28;20691;-80
2021/12/17 09:47:40;;;;;;;35.72;12.52;;;8.20;99.90;;;;;;5079423;28;20052;-80
2021/12/17 09:50:07;;;;;;;38.00;13.60;;;8.20;99.90;;;;;;5049149;28;20033;-80
2021/12/17 09:52:33;;;;;;;42.67;14.10;;;8.20;99.90;;;;;;5050312;28;20045;-80
2021/12/17 09:55:00;;;;;;;31.83;12.20;;;8.30;99.90;;;;;;5016323;28;20504;-80
2021/12/17 09:57:26;;;;;;;41.15;13.40;;;8.20;99.90;;;;;;5054699;28;20138;-80
2021/12/17 09:59:53;;;;;;;41.70;13.93;;;8.30;99.90;;;;;;5033301;28;20037;-80
2021/12/17 10:02:20;;;;;;;38.78;12.68;;;8.30;99.90;;;;;;5049564;28;20041;-80
2021/12/17 10:04:46;;;;;;;45.10;14.05;;;8.30;99.90;;;;;;5013560;28;20065;-81
2021/12/17 10:07:25;;;;;;;37.22;12.65;;;8.30;99.90;;;;;;5064073;28;20045;-81
2021/12/17 10:09:56;;;;;;;40.33;12.95;;;8.40;99.90;;;;;;5065016;28;20070;-81
2021/12/17 10:12:28;;;;;;;43.60;14.25;;;8.40;99.90;;;;;;5033572;28;20115;-81
2021/12/17 10:15:14;;;;;;;34.33;12.30;;;8.40;99.90;;;;;;5062602;28;20370;-81
2021/12/17 10:18:03;;;;;;;34.92;12.38;;;8.40;99.90;;;;;;5033950;28;20052;-81
2021/12/17 10:20:32;;;;;;;34.17;12.65;;;8.50;99.90;;;;;;5015959;28;20094;-81
2021/12/17 10:23:07;;;;;;;31.55;13.20;;;8.50;99.90;;;;;;5033756;28;20041;-81
2021/12/17 10:25:35;;;;;;;27.25;12.48;;;8.60;99.90;;;;;;5033554;28;20759;-81
2021/12/17 10:28:04;;;;;;;27.85;11.38;;;8.60;99.90;;;;;;5033933;28;20040;-81
2021/12/17 10:30:35;;;;;;;23.23;11.35;;;8.70;99.90;;;;;;5016816;28;20045;-81
2021/12/17 10:33:06;;;;;;;24.63;11.13;;;8.70;99.90;;;;;;5067290;28;20079;-81
2021/12/17 10:35:34;;;;;;;24.98;10.73;;;8.70;99.90;;;;;;5063327;28;20303;-82
2021/12/17 10:38:07;;;;;;;26.20;11.40;;;8.70;99.90;;;;;;5032405;28;20029;-82
2021/12/17 10:40:45;;;;;;;25.67;11.27;;;8.80;99.90;;;;;;5044019;28;20045;-82
2021/12/17 10:43:24;;;;;;;23.33;10.93;;;8.80;99.90;;;;;;5033978;28;20477;-82
2021/12/17 10:46:02;;;;;;;24.53;10.73;;;8.90;99.90;;;;;;5050365;28;20782;-82
2021/12/17 10:48:33;;;;;;;21.20;10.10;;;8.90;99.90;;;;;;5033677;28;20283;-82
2021/12/17 10:51:10;;;;;;;19.80;10.32;;;9.00;99.90;;;;;;5066169;28;20045;-82
2021/12/17 10:53:36;;;;;;;19.20;10.07;;;9.00;99.90;;;;;;5033291;28;20045;-82
2021/12/17 10:56:02;;;;;;;17.27;9.37;;;9.00;99.90;;;;;;5066187;28;20559;-82
2021/12/17 10:58:28;;;;;;;16.92;10.00;;;9.00;99.90;;;;;;5017523;28;20036;-82
2021/12/17 11:01:05;;;;;;;17.37;9.27;;;9.10;99.90;;;;;;5014808;28;20049;-82
2021/12/17 11:03:40;;;;;;;17.77;9.40;;;9.10;99.90;;;;;;5062089;28;20041;-82
2021/12/17 11:06:06;;;;;;;14.73;8.97;;;9.20;99.90;;;;;;5032098;28;20712;-82
2021/12/17 11:08:33;;;;;;;17.30;11.63;;;9.20;99.90;;;;;;5033723;28;20287;-81
2021/12/17 11:11:10;;;;;;;25.57;18.37;;;9.20;99.90;;;;;;5011581;28;20041;-81
2021/12/17 11:13:51;;;;;;;17.27;10.77;;;9.30;99.90;;;;;;5028279;28;20776;-81
2021/12/17 11:16:18;;;;;;;21.00;12.20;;;9.30;99.90;;;;;;5031684;28;20283;-81
2021/12/17 11:18:44;;;;;;;21.07;11.93;;;9.20;99.90;;;;;;5047374;28;20272;-82
2021/12/17 11:21:12;;;;;;;11.70;7.17;;;9.30;99.90;;;;;;4996402;28;20790;-82
2021/12/17 11:23:38;;;;;;;32.40;18.77;;;9.30;99.90;;;;;;5012903;28;20047;-82
2021/12/17 11:26:03;;;;;;;9.47;6.37;;;9.30;99.90;;;;;;5012270;28;20283;-82
2021/12/17 11:28:30;;;;;;;8.03;5.57;;;9.30;99.90;;;;;;5012902;28;20401;-81
2021/12/17 11:30:56;;;;;;;9.43;6.40;;;9.30;99.90;;;;;;5029158;28;20052;-82
2021/12/17 11:33:21;;;;;;;10.73;7.30;;;9.30;99.90;;;;;;5027919;28;20279;-82
2021/12/17 11:35:49;;;;;;;8.37;5.77;;;9.30;99.90;;;;;;4996014;28;20819;-82
2021/12/17 11:38:46;;;;;;;9.03;6.27;;;9.30;99.90;;;;;;5033309;28;20049;-82
2021/12/17 11:41:24;;;;;;;9.87;5.43;;;9.30;99.90;;;;;;5027524;28;20333;-82
2021/12/17 11:43:59;;;;;;;9.40;5.60;;;9.30;99.90;;;;;;5065478;28;20287;-82
2021/12/17 11:46:28;;;;;;;8.32;6.05;;;9.30;99.90;;;;;;5032158;28;20303;-82
2021/12/17 11:48:57;;;;;;;8.73;5.90;;;9.30;99.90;;;;;;5049158;28;20101;-82
2021/12/17 11:51:25;;;;;;;7.83;5.63;;;9.30;99.90;;;;;;5033285;28;20817;-82
2021/12/17 11:53:54;;;;;;;7.10;5.17;;;9.30;99.90;;;;;;5026333;28;20284;-82
2021/12/17 11:56:39;;;;;;;7.50;5.33;;;9.30;99.90;;;;;;5033417;28;20655;-82
2021/12/17 11:59:07;;;;;;;14.93;12.05;;;9.30;99.90;;;;;;5034321;28;20307;-82
2021/12/17 12:01:56;;;;;;;7.13;5.93;;;9.40;99.90;;;;;;5001396;28;20033;-82
2021/12/17 12:04:22;;;;;;;8.10;6.07;;;9.40;99.90;;;;;;5033374;28;20283;-82
2021/12/17 12:07:03;;;;;;;7.37;5.37;;;9.40;99.90;;;;;;5025033;28;20299;-82
2021/12/17 12:09:58;;;;;;;7.60;5.68;;;9.40;99.90;;;;;;5030199;28;20455;-82
2021/12/17 12:12:33;;;;;;;7.10;5.68;;;9.40;99.90;;;;;;5029286;28;20040;-82
2021/12/17 12:15:21;;;;;;;10.32;7.13;;;9.30;99.90;;;;;;5032511;28;20037;-82
2021/12/17 12:18:10;;;;;;;8.93;6.10;;;9.30;99.90;;;;;;5065174;28;20052;-82
2021/12/17 12:20:45;;;;;;;8.43;6.50;;;9.40;99.90;;;;;;5032231;28;20416;-82
2021/12/17 12:23:21;;;;;;;12.40;8.82;;;9.40;99.90;;;;;;5036104;28;20276;-82
2021/12/17 12:26:14;;;;;;;10.87;8.60;;;9.40;99.90;;;;;;5026771;28;20088;-82
2021/12/17 12:28:47;;;;;;;19.37;13.93;;;9.40;99.90;;;;;;5031604;28;20352;-82
2021/12/17 12:31:36;;;;;;;12.33;8.73;;;9.30;99.90;;;;;;5031304;28;20331;-82
2021/12/17 12:36:59;;;;;;;17.17;12.00;;;9.40;99.90;;;;;;5047389;28;20302;-82
2021/12/17 12:39:25;;;;;;;12.90;9.23;;;9.40;99.90;;;;;;5056118;28;20033;-82
2021/12/17 12:42:03;;;;;;;9.47;6.57;;;9.40;99.90;;;;;;5032190;28;21016;-82
2021/12/17 12:44:44;;;;;;;15.03;10.70;;;9.40;99.90;;;;;;5031634;28;20053;-82
2021/12/17 12:47:31;;;;;;;10.50;7.23;;;9.40;99.90;;;;;;5070218;28;20318;-82
2021/12/17 12:50:06;;;;;;;11.80;8.83;;;9.30;99.90;;;;;;5028831;28;20889;-82
2021/12/17 12:52:32;;;;;;;8.60;6.32;;;9.40;99.90;;;;;;5064419;28;20287;-82
2021/12/17 12:55:02;;;;;;;9.63;6.77;;;9.40;99.90;;;;;;5030401;28;20064;-82
2021/12/17 12:57:35;;;;;;;8.87;6.53;;;9.40;99.90;;;;;;5031653;28;20253;-83
2021/12/17 13:00:11;;;;;;;9.60;7.10;;;9.40;99.90;;;;;;5031643;28;20283;-83
2021/12/17 13:02:38;;;;;;;10.70;7.53;;;9.40;99.90;;;;;;5049612;28;20318;-82
2021/12/17 13:05:06;;;;;;;10.57;7.77;;;9.40;99.90;;;;;;5031924;28;20828;-82
2021/12/17 13:07:38;;;;;;;10.03;6.97;;;9.40;99.90;;;;;;5014444;28;20344;-82
2021/12/17 13:10:18;;;;;;;10.13;8.37;;;9.40;99.90;;;;;;5036332;28;20279;-82
2021/12/17 13:13:16;;;;;;;8.63;6.80;;;9.40;99.90;;;;;;5070362;28;20288;-81
2021/12/17 13:15:46;;;;;;;9.83;6.90;;;9.40;99.90;;;;;;5064797;28;20738;-81
2021/12/17 13:23:53;;;;;;;20.90;14.47;;;9.40;99.90;;;;;;5082837;28;20280;-81
2021/12/17 13:26:23;;;;;;;21.40;14.63;;;9.40;99.90;;;;;;5048843;28;20287;-81
2021/12/17 13:29:00;;;;;;;14.83;12.47;;;9.40;99.90;;;;;;5032395;28;20451;-81
2021/12/17 13:31:43;;;;;;;13.30;9.67;;;9.40;99.90;;;;;;5046625;28;20292;-81
2021/12/17 13:34:32;;;;;;;9.80;7.97;;;9.40;99.90;;;;;;5029899;28;20279;-82
2021/12/17 13:37:04;;;;;;;8.87;7.20;;;9.40;99.90;;;;;;5054295;28;20786;-82
2021/12/17 13:39:41;;;;;;;9.83;6.80;;;9.40;99.90;;;;;;5031091;28;20884;-82
2021/12/17 13:42:09;;;;;;;10.73;6.50;;;9.40;99.90;;;;;;5030639;28;20319;-82
2021/12/17 13:44:34;;;;;;;9.93;6.10;;;9.40;99.90;;;;;;5014216;28;20790;-82
2021/12/17 13:47:40;;;;;;;16.83;11.23;;;9.40;99.90;;;;;;5031583;28;20287;-82
2021/12/17 13:50:14;;;;;;;11.60;7.93;;;9.40;99.90;;;;;;5028760;28;20045;-82
2021/12/17 13:53:01;;;;;;;7.20;5.45;;;9.40;99.90;;;;;;5063718;28;20287;-82
2021/12/17 13:55:46;;;;;;;8.47;4.50;;;9.30;99.90;;;;;;5029048;28;20512;-82
2021/12/17 13:58:23;;;;;;;6.40;4.38;;;9.30;99.90;;;;;;5028205;28;20376;-82
2021/12/17 14:00:54;;;;;;;8.53;5.13;;;9.30;99.90;;;;;;5038002;28;20403;-82
2021/12/17 14:03:23;;;;;;;8.88;6.35;;;9.30;99.90;;;;;;5048309;28;20837;-82
2021/12/17 14:05:56;;;;;;;5.47;4.53;;;9.30;99.90;;;;;;5030688;28;20037;-82
2021/12/17 14:08:22;;;;;;;8.27;5.20;;;9.30;99.90;;;;;;5015804;28;20297;-82
2021/12/17 14:10:50;;;;;;;17.60;11.53;;;9.30;99.90;;;;;;5014751;28;20733;-82
2021/12/17 14:13:25;;;;;;;5.50;4.93;;;9.30;99.90;;;;;;5031721;28;20041;-83
2021/12/17 14:15:53;;;;;;;8.68;4.60;;;9.30;99.90;;;;;;5020296;28;20303;-83
2021/12/17 14:18:26;;;;;;;5.07;4.10;;;9.30;99.90;;;;;;5011445;28;20045;-83
2021/12/17 14:20:54;;;;;;;38.40;22.35;;;9.30;99.90;;;;;;5041613;28;20279;-82
2021/12/17 14:23:23;;;;;;;8.33;5.30;;;9.30;99.90;;;;;;5031101;28;20037;-82
2021/12/17 14:25:50;;;;;;;18.30;9.88;;;9.30;99.90;;;;;;5046765;28;20822;-82
2021/12/17 14:28:17;;;;;;;7.82;6.22;;;9.20;99.90;;;;;;5030941;28;20079;-82
2021/12/17 14:30:56;;;;;;;6.75;5.60;;;9.20;99.90;;;;;;5044921;28;20497;-83
2021/12/17 14:33:31;;;;;;;12.50;11.23;;;9.20;99.90;;;;;;5029262;28;20127;-83
2021/12/17 14:36:17;;;;;;;9.02;5.70;;;9.20;99.90;;;;;;5026492;28;20333;-83
2021/12/17 14:38:51;;;;;;;12.45;11.20;;;9.20;99.90;;;;;;5031549;28;20099;-83
2021/12/17 14:41:25;;;;;;;7.80;6.18;;;9.20;99.90;;;;;;5030073;28;20036;-83
2021/12/17 14:43:58;;;;;;;6.53;5.20;;;9.20;99.90;;;;;;5015314;28;20041;-83
2021/12/17 14:46:29;;;;;;;7.93;6.60;;;9.20;99.90;;;;;;5031156;28;20342;-83
2021/12/17 14:57:25;;;;;;;15.70;11.07;;;9.20;99.90;;;;;;5015431;28;20283;-83
2021/12/17 15:05:25;;;;;;;6.43;4.00;;;9.10;99.90;;;;;;5047724;28;20349;-82
2021/12/17 15:07:52;;;;;;;5.80;4.05;;;9.10;99.90;;;;;;5030408;28;20345;-82
2021/12/17 15:10:19;;;;;;;5.15;4.05;;;9.10;99.90;;;;;;5019771;28;20048;-82
2021/12/17 15:12:46;;;;;;;5.65;4.60;;;9.10;99.90;;;;;;5017450;28;20501;-82
2021/12/17 15:15:18;;;;;;;6.82;5.28;;;9.10;99.90;;;;;;5019540;28;20041;-82
2021/12/17 15:17:45;;;;;;;7.43;5.22;;;9.10;99.90;;;;;;5049237;28;20043;-82
2021/12/17 15:20:12;;;;;;;7.63;4.93;;;9.00;99.90;;;;;;5034376;28;20037;-82
2021/12/17 15:22:39;;;;;;;10.45;5.68;;;9.00;99.90;;;;;;5025945;28;20579;-82
2021/12/17 15:25:06;;;;;;;9.88;7.20;;;9.00;99.90;;;;;;5068460;28;20056;-83
2021/12/17 15:27:33;;;;;;;8.80;6.70;;;9.00;99.90;;;;;;5043483;28;20072;-83
2021/12/17 15:30:01;;;;;;;7.28;5.97;;;9.00;99.90;;;;;;5032939;28;20045;-83
2021/12/17 15:32:27;;;;;;;8.07;6.30;;;9.00;99.90;;;;;;5064975;28;20407;-83
2021/12/17 15:34:53;;;;;;;8.70;6.70;;;9.00;99.90;;;;;;5015665;28;20390;-83
2021/12/17 15:37:19;;;;;;;7.68;6.07;;;9.00;99.90;;;;;;5052094;28;20041;-83
2021/12/17 15:39:45;;;;;;;12.10;6.90;;;9.00;99.90;;;;;;5018426;28;20048;-83
2021/12/17 15:42:11;;;;;;;8.43;5.70;;;9.00;99.90;;;;;;5032777;28;20079;-83
2021/12/17 15:44:37;;;;;;;8.47;6.00;;;9.00;99.90;;;;;;5034558;28;20583;-83
2021/12/17 15:47:05;;;;;;;8.73;5.80;;;8.90;99.90;;;;;;5017068;28;20033;-83
2021/12/17 15:49:31;;;;;;;7.63;5.70;;;9.00;99.90;;;;;;5033676;28;20104;-82
2021/12/17 15:51:57;;;;;;;10.70;6.20;;;8.90;99.90;;;;;;5017866;28;20681;-82
2021/12/17 15:54:23;;;;;;;7.77;5.47;;;8.90;99.90;;;;;;5016474;28;20051;-82
2021/12/17 15:56:49;;;;;;;8.60;6.40;;;8.90;99.90;;;;;;5035203;28;20087;-82
2021/12/17 15:59:16;;;;;;;14.23;9.05;;;8.90;99.90;;;;;;5050475;28;20048;-82
2021/12/17 16:01:41;;;;;;;29.25;19.52;;;8.90;99.90;;;;;;5017636;28;20468;-82
2021/12/17 16:04:07;;;;;;;14.63;9.70;;;8.90;99.90;;;;;;5010421;28;20033;-83
2021/12/17 16:06:33;;;;;;;10.87;7.60;;;8.90;99.90;;;;;;5032629;28;20075;-83
2021/12/17 16:09:04;;;;;;;19.73;14.65;;;8.90;99.90;;;;;;5033212;28;20760;-83
2021/12/17 16:16:50;;;;;;;13.83;8.30;;;8.90;99.90;;;;;;5036610;28;20374;-83
2021/12/17 16:17:56;;;;;;;14.10;10.77;;;8.90;99.90;;;;;;5033739;28;20379;-83
2021/12/17 16:22:34;;;;;;;25.13;17.07;;;8.90;99.90;;;;;;5040821;28;20043;-83
2021/12/17 16:25:00;;;;;;;20.70;15.40;;;8.90;99.90;;;;;;5016582;28;20370;-83